createdAt,value
2023-02-12T00:00:22.917Z,10.57
2023-02-12T00:01:24.602Z,10.57
2023-02-12T00:02:26.208Z,10.57
2023-02-12T00:03:27.733Z,10.56
2023-02-12T00:04:29.214Z,10.57
2023-02-12T00:05:31.219Z,10.59
2023-02-12T00:06:32.697Z,10.59
2023-02-12T00:07:34.133Z,10.59
2023-02-12T00:08:35.735Z,10.60
2023-02-12T00:09:37.249Z,10.58
2023-02-12T00:10:43.135Z,10.56
2023-02-12T00:11:44.671Z,10.56
2023-02-12T00:12:46.118Z,10.55
2023-02-12T00:13:47.650Z,10.53
2023-02-12T00:14:49.221Z,10.53
2023-02-12T00:15:50.770Z,10.51
2023-02-12T00:16:52.364Z,10.51
2023-02-12T00:17:53.828Z,10.53
2023-02-12T00:18:55.755Z,10.53
2023-02-12T00:19:57.290Z,10.53
2023-02-12T00:20:59.272Z,10.54
2023-02-12T00:22:00.800Z,10.54
2023-02-12T00:23:02.254Z,10.55
2023-02-12T00:24:03.804Z,10.56
2023-02-12T00:25:05.343Z,10.57
2023-02-12T00:26:07.600Z,10.56
2023-02-12T00:27:09.090Z,10.57
2023-02-12T00:28:10.676Z,10.57
2023-02-12T00:29:12.122Z,10.56
2023-02-12T00:30:13.662Z,10.56
2023-02-12T00:31:16.265Z,10.55
2023-02-12T00:32:21.012Z,10.54
2023-02-12T00:33:22.483Z,10.54
2023-02-12T00:34:24.046Z,10.53
2023-02-12T00:35:25.550Z,10.54
2023-02-12T00:36:27.520Z,10.54
2023-02-12T00:37:29.010Z,10.55
2023-02-12T00:38:30.465Z,10.55
2023-02-12T00:39:31.958Z,10.55
2023-02-12T00:40:33.512Z,10.55
2023-02-12T00:41:35.013Z,10.56
2023-02-12T00:42:36.606Z,10.55
2023-02-12T00:43:38.145Z,10.55
2023-02-12T00:44:39.642Z,10.55
2023-02-12T00:45:41.094Z,10.56
2023-02-12T00:46:42.670Z,10.57
2023-02-12T00:47:44.195Z,10.56
2023-02-12T00:48:45.757Z,10.57
2023-02-12T00:49:47.268Z,10.58
2023-02-12T00:50:48.707Z,10.59
2023-02-12T00:51:50.309Z,10.59
2023-02-12T00:52:51.767Z,10.60
2023-02-12T00:53:53.287Z,10.61
2023-02-12T00:54:54.922Z,10.60
2023-02-12T00:55:56.795Z,10.61
2023-02-12T00:56:59.045Z,10.64
2023-02-12T00:58:04.008Z,10.64
2023-02-12T00:59:05.497Z,10.65
2023-02-12T01:00:07.366Z,10.64
2023-02-12T01:01:10.035Z,10.65
2023-02-12T01:02:11.574Z,10.65
2023-02-12T01:03:13.138Z,10.64
2023-02-12T01:04:14.676Z,10.64
2023-02-12T01:05:16.191Z,10.63
2023-02-12T01:06:19.061Z,10.64
2023-02-12T01:07:21.856Z,10.62
2023-02-12T01:08:23.937Z,10.60
2023-02-12T01:09:25.523Z,10.60
2023-02-12T01:10:27.502Z,10.59
2023-02-12T01:11:29.066Z,10.59
2023-02-12T01:12:30.578Z,10.60
2023-02-12T01:13:32.113Z,10.59
2023-02-12T01:14:35.425Z,10.60
2023-02-12T01:15:38.509Z,10.61
2023-02-12T01:16:40.347Z,10.61
2023-02-12T01:17:41.938Z,10.61
2023-02-12T01:18:43.598Z,10.61
2023-02-12T01:19:45.057Z,10.62
2023-02-12T01:20:46.599Z,10.63
2023-02-12T01:21:48.086Z,10.62
2023-02-12T01:22:49.730Z,10.64
2023-02-12T01:23:51.215Z,10.63
2023-02-12T01:24:52.670Z,10.63
2023-02-12T01:25:54.639Z,10.62
2023-02-12T01:26:56.464Z,10.63
2023-02-12T01:27:57.973Z,10.61
2023-02-12T01:29:01.387Z,10.60
2023-02-12T01:30:03.754Z,10.61
2023-02-12T01:31:11.573Z,10.61
2023-02-12T01:32:13.208Z,10.61
2023-02-12T01:33:14.780Z,10.60
2023-02-12T01:34:16.477Z,10.59
2023-02-12T01:35:17.982Z,10.58
2023-02-12T01:36:19.527Z,10.57
2023-02-12T01:37:23.077Z,10.57
2023-02-12T01:38:24.529Z,10.57
2023-02-12T01:39:26.052Z,10.58
2023-02-12T01:40:27.562Z,10.58
2023-02-12T01:41:30.214Z,10.58
2023-02-12T01:42:31.750Z,10.58
2023-02-12T01:43:36.776Z,10.59
2023-02-12T01:44:39.713Z,10.57
2023-02-12T01:45:41.265Z,10.58
2023-02-12T01:46:43.869Z,10.60
2023-02-12T01:47:45.466Z,10.57
2023-02-12T01:48:46.923Z,10.58
2023-02-12T01:49:48.442Z,10.58
2023-02-12T01:50:49.982Z,10.58
2023-02-12T01:51:55.593Z,10.59
2023-02-12T01:52:57.459Z,10.60
2023-02-12T01:53:59.534Z,10.60
2023-02-12T01:55:01.780Z,10.61
2023-02-12T01:56:03.467Z,10.63
2023-02-12T01:57:05.400Z,10.63
2023-02-12T01:58:06.918Z,10.65
2023-02-12T01:59:08.435Z,10.65
2023-02-12T02:00:11.011Z,10.65
2023-02-12T02:01:18.906Z,10.65
2023-02-12T02:02:20.513Z,10.65
2023-02-12T02:03:23.376Z,10.64
2023-02-12T02:04:26.917Z,10.64
2023-02-12T02:05:48.083Z,10.63
2023-02-12T02:06:50.955Z,10.61
2023-02-12T02:07:52.627Z,10.61
2023-02-12T02:08:54.864Z,10.62
2023-02-12T02:09:56.727Z,10.61
2023-02-12T02:10:58.171Z,10.61
2023-02-12T02:12:19.001Z,10.59
2023-02-12T02:13:39.269Z,10.60
2023-02-12T02:14:40.779Z,10.61
2023-02-12T02:15:42.730Z,10.61
2023-02-12T02:16:46.310Z,10.60
2023-02-12T02:18:01.209Z,10.60
2023-02-12T02:19:03.258Z,10.59
2023-02-12T02:20:19.626Z,10.59
2023-02-12T02:21:27.269Z,10.59
2023-02-12T02:22:31.801Z,10.58
2023-02-12T02:23:52.285Z,10.58
2023-02-12T02:25:07.741Z,10.57
2023-02-12T02:26:27.468Z,10.58
2023-02-12T02:27:47.698Z,10.58
2023-02-12T02:29:15.320Z,10.58
2023-02-12T02:30:19.731Z,10.60
2023-02-12T02:31:31.116Z,10.61
2023-02-12T02:32:34.985Z,10.60
2023-02-12T02:33:38.058Z,10.62
2023-02-12T02:35:14.907Z,10.61
2023-02-12T02:36:21.161Z,10.61
2023-02-12T02:37:41.031Z,10.62
2023-02-12T02:38:50.737Z,10.63
2023-02-12T02:39:53.062Z,10.63
2023-02-12T02:41:02.795Z,10.64
2023-02-12T02:42:04.280Z,10.64
2023-02-12T02:43:07.323Z,10.64
2023-02-12T02:44:10.728Z,10.65
2023-02-12T02:45:25.989Z,10.65
2023-02-12T02:46:41.303Z,10.65
2023-02-12T02:47:51.433Z,10.66
2023-02-12T02:48:53.834Z,10.67
2023-02-12T02:49:56.543Z,10.66
2023-02-12T02:50:59.651Z,10.67
2023-02-12T02:52:02.094Z,10.67
2023-02-12T02:53:07.598Z,10.69
2023-02-12T02:54:13.203Z,10.68
2023-02-12T02:55:15.430Z,10.68
2023-02-12T02:56:17.804Z,10.70
2023-02-12T02:57:26.358Z,10.69
2023-02-12T02:58:38.128Z,10.69
2023-02-12T02:59:41.808Z,10.71
2023-02-12T03:00:44.437Z,10.70
2023-02-12T03:01:51.059Z,10.69
2023-02-12T03:02:54.289Z,10.70
2023-02-12T03:04:01.321Z,10.69
2023-02-12T03:05:23.066Z,10.71
2023-02-12T03:06:24.578Z,10.73
2023-02-12T03:07:27.884Z,10.73
2023-02-12T03:08:34.692Z,10.74
2023-02-12T03:09:38.001Z,10.73
2023-02-12T03:10:46.089Z,10.72
2023-02-12T03:11:47.593Z,10.73
2023-02-12T03:12:49.052Z,10.71
2023-02-12T03:14:01.772Z,10.72
2023-02-12T03:15:05.551Z,10.71
2023-02-12T03:16:09.210Z,10.70
2023-02-12T03:17:13.056Z,10.69
2023-02-12T03:18:20.110Z,10.69
2023-02-12T03:19:22.921Z,10.70
2023-02-12T03:20:29.265Z,10.69
2023-02-12T03:21:36.466Z,10.69
2023-02-12T03:22:39.609Z,10.69
2023-02-12T03:23:42.938Z,10.70
2023-02-12T03:24:45.275Z,10.69
2023-02-12T03:25:49.429Z,10.70
2023-02-12T03:26:52.376Z,10.70
2023-02-12T03:27:59.783Z,10.70
2023-02-12T03:29:01.280Z,10.71
2023-02-12T03:30:04.037Z,10.71
2023-02-12T03:31:24.749Z,10.72
2023-02-12T03:32:32.096Z,10.71
2023-02-12T03:33:42.660Z,10.71
2023-02-12T03:34:44.115Z,10.70
2023-02-12T03:36:01.890Z,10.70
2023-02-12T03:37:05.425Z,10.70
2023-02-12T03:38:19.972Z,10.69
2023-02-12T03:39:30.411Z,10.67
2023-02-12T03:40:35.425Z,10.66
2023-02-12T03:41:50.382Z,10.66
2023-02-12T03:42:59.273Z,10.66
2023-02-12T03:44:23.789Z,10.67
2023-02-12T03:45:34.054Z,10.67
2023-02-12T03:46:43.159Z,10.68
2023-02-12T03:47:46.627Z,10.66
2023-02-12T03:49:00.047Z,10.65
2023-02-12T03:50:13.640Z,10.66
2023-02-12T03:51:15.088Z,10.64
2023-02-12T03:52:16.516Z,10.66
2023-02-12T03:53:18.046Z,10.66
2023-02-12T03:54:20.122Z,10.58
2023-02-12T03:55:21.572Z,10.67
2023-02-12T03:56:27.165Z,10.67
2023-02-12T03:57:31.443Z,10.67
2023-02-12T03:58:33.103Z,10.68
2023-02-12T03:59:35.149Z,10.68
2023-02-12T04:00:37.341Z,10.68
2023-02-12T04:01:38.966Z,10.68
2023-02-12T04:02:41.153Z,10.69
2023-02-12T04:03:42.659Z,10.70
2023-02-12T04:04:44.335Z,10.70
2023-02-12T04:05:45.892Z,10.70
2023-02-12T04:06:47.869Z,10.70
2023-02-12T04:07:49.541Z,10.71
2023-02-12T04:08:51.024Z,10.70
2023-02-12T04:09:52.497Z,10.70
2023-02-12T04:11:00.841Z,10.70
2023-02-12T04:12:02.315Z,10.70
2023-02-12T04:13:19.475Z,10.71
2023-02-12T04:14:26.918Z,10.71
2023-02-12T04:15:32.258Z,10.71
2023-02-12T04:16:38.108Z,10.71
2023-02-12T04:17:58.801Z,10.71
2023-02-12T04:19:00.477Z,10.72
2023-02-12T04:20:09.847Z,10.70
2023-02-12T04:21:20.705Z,10.72
2023-02-12T04:22:34.361Z,10.71
2023-02-12T04:23:54.458Z,10.72
2023-02-12T04:24:55.907Z,10.73
2023-02-12T04:25:58.279Z,10.74
2023-02-12T04:27:02.751Z,10.75
2023-02-12T04:28:04.223Z,10.76
2023-02-12T04:29:26.003Z,10.76
2023-02-12T04:30:44.215Z,10.76
2023-02-12T04:31:49.725Z,10.76
2023-02-12T04:32:52.778Z,10.78
2023-02-12T04:33:58.807Z,10.78
2023-02-12T04:35:06.313Z,10.78
2023-02-12T04:36:15.792Z,10.78
2023-02-12T04:37:18.229Z,10.77
2023-02-12T04:38:21.754Z,10.77
2023-02-12T04:39:24.311Z,10.76
2023-02-12T04:40:25.767Z,10.77
2023-02-12T04:41:27.306Z,10.76
2023-02-12T04:42:28.800Z,10.77
2023-02-12T04:43:31.029Z,10.76
2023-02-12T04:44:33.752Z,10.76
2023-02-12T04:45:35.430Z,10.76
2023-02-12T04:46:36.915Z,10.76
2023-02-12T04:47:38.502Z,10.76
2023-02-12T04:48:49.129Z,10.76
2023-02-12T04:49:50.713Z,10.77
2023-02-12T04:50:52.160Z,10.76
2023-02-12T04:51:53.631Z,10.76
2023-02-12T04:52:55.110Z,10.76
2023-02-12T04:53:56.580Z,10.76
2023-02-12T04:54:58.086Z,10.76
2023-02-12T04:55:59.563Z,10.76
2023-02-12T04:57:01.087Z,10.75
2023-02-12T04:58:02.603Z,10.75
2023-02-12T04:59:04.237Z,10.73
2023-02-12T05:00:06.244Z,10.74
2023-02-12T05:01:09.026Z,10.74
2023-02-12T05:02:10.510Z,10.75
2023-02-12T05:03:11.997Z,10.73
2023-02-12T05:04:13.917Z,10.74
2023-02-12T05:05:15.541Z,10.73
2023-02-12T05:06:17.034Z,10.71
2023-02-12T05:07:18.503Z,10.71
2023-02-12T05:08:19.959Z,10.73
2023-02-12T05:09:21.455Z,10.71
2023-02-12T05:10:22.953Z,10.70
2023-02-12T05:11:24.411Z,10.70
2023-02-12T05:12:25.896Z,10.70
2023-02-12T05:13:27.393Z,10.71
2023-02-12T05:14:29.208Z,10.70
2023-02-12T05:15:30.722Z,10.69
2023-02-12T05:16:32.210Z,10.69
2023-02-12T05:17:33.653Z,10.69
2023-02-12T05:18:35.237Z,10.70
2023-02-12T05:19:36.721Z,10.69
2023-02-12T05:20:38.497Z,10.69
2023-02-12T05:21:39.952Z,10.68
2023-02-12T05:22:41.847Z,10.67
2023-02-12T05:23:43.335Z,10.67
2023-02-12T05:24:45.384Z,10.68
2023-02-12T05:25:46.880Z,10.66
2023-02-12T05:26:48.601Z,10.66
2023-02-12T05:27:50.080Z,10.66
2023-02-12T05:28:51.543Z,10.65
2023-02-12T05:29:53.030Z,10.65
2023-02-12T05:30:54.564Z,10.65
2023-02-12T05:31:56.090Z,10.64
2023-02-12T05:32:57.661Z,10.65
2023-02-12T05:33:59.340Z,10.65
2023-02-12T05:35:00.880Z,10.66
2023-02-12T05:36:06.070Z,10.66
2023-02-12T05:37:07.610Z,10.66
2023-02-12T05:38:09.091Z,10.66
2023-02-12T05:39:10.557Z,10.66
2023-02-12T05:40:12.280Z,10.67
2023-02-12T05:41:16.531Z,10.64
2023-02-12T05:42:18.059Z,10.64
2023-02-12T05:43:19.544Z,10.64
2023-02-12T05:44:21.044Z,10.64
2023-02-12T05:45:27.828Z,10.63
2023-02-12T05:46:29.373Z,10.62
2023-02-12T05:47:30.847Z,10.62
2023-02-12T05:48:32.319Z,10.61
2023-02-12T05:49:34.607Z,10.59
2023-02-12T05:50:36.464Z,10.58
2023-02-12T05:51:42.624Z,10.58
2023-02-12T05:52:44.084Z,10.57
2023-02-12T05:53:45.537Z,10.57
2023-02-12T05:54:49.102Z,10.58
2023-02-12T05:55:50.599Z,10.57
2023-02-12T05:56:52.106Z,10.56
2023-02-12T05:57:53.632Z,10.54
2023-02-12T05:58:58.866Z,10.53
2023-02-12T06:00:00.354Z,10.52
2023-02-12T06:01:01.813Z,10.52
2023-02-12T06:02:03.327Z,10.51
2023-02-12T06:03:04.801Z,10.50
2023-02-12T06:04:08.015Z,10.50
2023-02-12T06:05:09.637Z,10.50
2023-02-12T06:06:11.276Z,10.48
2023-02-12T06:07:12.766Z,10.48
2023-02-12T06:08:14.235Z,10.49
2023-02-12T06:09:15.767Z,10.48
2023-02-12T06:10:17.296Z,10.49
2023-02-12T06:11:19.419Z,10.48
2023-02-12T06:12:21.182Z,10.49
2023-02-12T06:13:22.675Z,10.49
2023-02-12T06:14:24.213Z,10.50
2023-02-12T06:15:25.697Z,10.48
2023-02-12T06:16:27.528Z,10.48
2023-02-12T06:17:29.083Z,10.47
2023-02-12T06:18:30.581Z,10.47
2023-02-12T06:19:32.066Z,10.46
2023-02-12T06:20:33.542Z,10.46
2023-02-12T06:21:35.083Z,10.45
2023-02-12T06:22:38.301Z,10.45
2023-02-12T06:23:39.774Z,10.44
2023-02-12T06:24:41.257Z,10.43
2023-02-12T06:25:42.710Z,10.43
2023-02-12T06:26:44.186Z,10.43
2023-02-12T06:27:45.737Z,10.41
2023-02-12T06:28:47.259Z,10.39
2023-02-12T06:29:48.712Z,10.39
2023-02-12T06:30:50.240Z,10.40
2023-02-12T06:31:51.874Z,10.39
2023-02-12T06:32:53.441Z,10.39
2023-02-12T06:33:55.514Z,10.38
2023-02-12T06:34:56.972Z,10.38
2023-02-12T06:35:58.564Z,10.39
2023-02-12T06:37:00.133Z,10.38
2023-02-12T06:38:01.696Z,10.39
2023-02-12T06:39:03.373Z,10.38
2023-02-12T06:40:05.159Z,10.36
2023-02-12T06:41:06.654Z,10.37
2023-02-12T06:42:08.129Z,10.38
2023-02-12T06:43:09.609Z,10.36
2023-02-12T06:44:11.508Z,10.36
2023-02-12T06:45:12.966Z,10.36
2023-02-12T06:46:14.511Z,10.37
2023-02-12T06:47:16.090Z,10.36
2023-02-12T06:48:17.566Z,10.36
2023-02-12T06:49:19.123Z,10.36
2023-02-12T06:50:20.630Z,10.35
2023-02-12T06:51:23.479Z,10.35
2023-02-12T06:52:25.005Z,10.35
2023-02-12T06:53:26.511Z,10.34
2023-02-12T06:54:28.005Z,10.33
2023-02-12T06:55:29.461Z,10.34
2023-02-12T06:56:31.021Z,10.33
2023-02-12T06:57:32.557Z,10.32
2023-02-12T06:58:34.078Z,10.33
2023-02-12T06:59:35.603Z,10.32
2023-02-12T07:00:37.124Z,10.33
2023-02-12T07:01:38.609Z,10.32
2023-02-12T07:02:40.136Z,10.33
2023-02-12T07:03:42.013Z,10.32
2023-02-12T07:04:43.586Z,10.33
2023-02-12T07:05:46.155Z,10.34
2023-02-12T07:06:47.603Z,10.34
2023-02-12T07:07:49.235Z,10.34
2023-02-12T07:08:50.776Z,10.32
2023-02-12T07:09:52.248Z,10.34
2023-02-12T07:10:53.704Z,10.34
2023-02-12T07:11:56.846Z,10.35
2023-02-12T07:12:58.276Z,10.36
2023-02-12T07:13:59.904Z,10.36
2023-02-12T07:15:01.440Z,10.36
2023-02-12T07:16:03.642Z,10.35
2023-02-12T07:17:05.541Z,10.35
2023-02-12T07:18:07.075Z,10.36
2023-02-12T07:19:09.335Z,10.35
2023-02-12T07:20:11.060Z,10.35
2023-02-12T07:21:12.819Z,10.35
2023-02-12T07:22:14.287Z,10.35
2023-02-12T07:23:15.749Z,10.36
2023-02-12T07:24:18.257Z,10.34
2023-02-12T07:25:19.824Z,10.35
2023-02-12T07:26:21.481Z,10.35
2023-02-12T07:27:22.943Z,10.34
2023-02-12T07:28:24.469Z,10.34
2023-02-12T07:29:26.000Z,10.34
2023-02-12T07:30:27.569Z,10.35
2023-02-12T07:31:29.379Z,10.35
2023-02-12T07:32:32.110Z,10.35
2023-02-12T07:33:33.549Z,10.36
2023-02-12T07:34:35.014Z,10.26
2023-02-12T07:35:36.521Z,10.36
2023-02-12T07:36:38.315Z,10.36
2023-02-12T07:37:39.820Z,10.37
2023-02-12T07:38:41.345Z,10.36
2023-02-12T07:39:42.798Z,10.37
2023-02-12T07:40:44.299Z,10.36
2023-02-12T07:41:45.777Z,10.38
2023-02-12T07:42:49.989Z,10.38
2023-02-12T07:43:55.873Z,10.39
2023-02-12T07:44:57.338Z,10.40
2023-02-12T07:46:05.853Z,10.39
2023-02-12T07:47:07.410Z,10.41
2023-02-12T07:48:08.912Z,10.42
2023-02-12T07:49:17.712Z,10.41
2023-02-12T07:50:19.231Z,10.42
2023-02-12T07:51:20.753Z,10.42
2023-02-12T07:52:22.240Z,10.43
2023-02-12T07:53:23.812Z,10.45
2023-02-12T07:54:25.344Z,10.45
2023-02-12T07:55:26.892Z,10.45
2023-02-12T07:56:32.716Z,10.45
2023-02-12T07:57:36.999Z,10.45
2023-02-12T07:58:38.556Z,10.45
2023-02-12T07:59:39.996Z,10.46
2023-02-12T08:00:41.505Z,10.47
2023-02-12T08:01:43.898Z,10.49
2023-02-12T08:02:50.840Z,10.49
2023-02-12T08:03:52.420Z,10.49
2023-02-12T08:04:57.114Z,10.50
2023-02-12T08:05:58.596Z,10.49
2023-02-12T08:07:00.097Z,10.49
2023-02-12T08:08:01.555Z,10.50
2023-02-12T08:09:03.821Z,10.50
2023-02-12T08:10:05.584Z,10.51
2023-02-12T08:11:07.826Z,10.53
2023-02-12T08:12:09.353Z,10.52
2023-02-12T08:13:10.809Z,10.53
2023-02-12T08:14:12.825Z,10.54
2023-02-12T08:15:14.263Z,10.54
2023-02-12T08:16:16.708Z,10.55
2023-02-12T08:17:18.269Z,10.53
2023-02-12T08:18:19.750Z,10.55
2023-02-12T08:19:25.727Z,10.55
2023-02-12T08:20:27.783Z,10.57
2023-02-12T08:21:29.341Z,10.57
2023-02-12T08:22:30.816Z,10.55
2023-02-12T08:23:32.348Z,10.57
2023-02-12T08:24:33.790Z,10.55
2023-02-12T08:25:35.256Z,10.57
2023-02-12T08:26:37.521Z,10.57
2023-02-12T08:27:41.034Z,10.58
2023-02-12T08:28:43.443Z,10.58
2023-02-12T08:29:44.884Z,10.59
2023-02-12T08:30:46.455Z,10.60
2023-02-12T08:31:48.612Z,10.59
2023-02-12T08:32:50.255Z,10.60
2023-02-12T08:33:52.253Z,10.61
2023-02-12T08:34:53.778Z,10.61
2023-02-12T08:36:11.432Z,10.62
2023-02-12T08:37:13.014Z,10.63
2023-02-12T08:38:14.566Z,10.63
2023-02-12T08:39:16.335Z,10.64
2023-02-12T08:40:17.929Z,10.64
2023-02-12T08:41:23.414Z,10.65
2023-02-12T08:42:25.714Z,10.66
2023-02-12T08:43:27.245Z,10.67
2023-02-12T08:44:28.947Z,10.67
2023-02-12T08:45:30.468Z,10.68
2023-02-12T08:46:32.763Z,10.69
2023-02-12T08:47:34.322Z,10.70
2023-02-12T08:48:35.919Z,10.71
2023-02-12T08:49:37.401Z,10.71
2023-02-12T08:50:39.076Z,10.72
2023-02-12T08:51:41.496Z,10.74
2023-02-12T08:52:44.006Z,10.74
2023-02-12T08:53:46.273Z,10.75
2023-02-12T08:54:47.762Z,10.75
2023-02-12T08:55:49.797Z,10.76
2023-02-12T08:56:51.730Z,10.75
2023-02-12T08:57:57.804Z,10.76
2023-02-12T08:58:59.383Z,10.75
2023-02-12T09:00:00.844Z,10.77
2023-02-12T09:01:02.582Z,10.76
2023-02-12T09:02:08.631Z,10.76
2023-02-12T09:03:10.170Z,10.75
2023-02-12T09:04:13.337Z,10.75
2023-02-12T09:05:14.855Z,10.76
2023-02-12T09:06:16.740Z,10.75
2023-02-12T09:07:18.182Z,10.76
2023-02-12T09:08:19.685Z,10.78
2023-02-12T09:09:21.156Z,10.78
2023-02-12T09:10:22.638Z,10.79
2023-02-12T09:11:30.388Z,10.80
2023-02-12T09:12:31.881Z,10.82
2023-02-12T09:13:33.370Z,10.83
2023-02-12T09:14:34.869Z,10.83
2023-02-12T09:15:37.172Z,10.86
2023-02-12T09:16:40.340Z,10.85
2023-02-12T09:17:43.668Z,10.85
2023-02-12T09:18:45.276Z,10.85
2023-02-12T09:19:46.818Z,10.86
2023-02-12T09:20:48.330Z,10.87
2023-02-12T09:21:55.558Z,10.86
2023-02-12T09:23:00.427Z,10.88
2023-02-12T09:24:03.464Z,10.86
2023-02-12T09:25:05.622Z,10.87
2023-02-12T09:26:07.551Z,10.89
2023-02-12T09:27:09.020Z,10.91
2023-02-12T09:28:10.759Z,10.94
2023-02-12T09:29:12.282Z,10.96
2023-02-12T09:30:13.885Z,10.98
2023-02-12T09:31:16.412Z,11.01
2023-02-12T09:32:18.020Z,11.01
2023-02-12T09:33:19.544Z,11.02
2023-02-12T09:34:21.047Z,11.04
2023-02-12T09:35:23.086Z,11.04
2023-02-12T09:36:24.593Z,11.05
2023-02-12T09:37:26.087Z,11.06
2023-02-12T09:38:27.539Z,11.08
2023-02-12T09:39:30.715Z,11.10
2023-02-12T09:40:37.408Z,11.10
2023-02-12T09:41:45.048Z,11.13
2023-02-12T09:42:46.480Z,11.11
2023-02-12T09:43:47.942Z,11.14
2023-02-12T09:45:02.561Z,11.16
2023-02-12T09:46:24.402Z,11.18
2023-02-12T09:47:27.501Z,11.21
2023-02-12T09:48:35.494Z,11.23
2023-02-12T09:49:39.558Z,11.25
2023-02-12T09:50:54.054Z,11.26
2023-02-12T09:51:55.489Z,11.28
2023-02-12T09:52:59.157Z,11.29
2023-02-12T09:54:02.129Z,11.29
2023-02-12T09:55:03.663Z,11.21
2023-02-12T09:56:12.719Z,11.31
2023-02-12T09:57:22.951Z,11.35
2023-02-12T09:58:35.512Z,11.33
2023-02-12T09:59:41.633Z,11.36
2023-02-12T10:00:44.556Z,11.37
2023-02-12T10:01:46.104Z,11.39
2023-02-12T10:02:47.654Z,11.39
2023-02-12T10:03:50.305Z,11.42
2023-02-12T10:05:01.110Z,11.43
2023-02-12T10:06:04.480Z,11.44
2023-02-12T10:07:08.944Z,11.45
2023-02-12T10:08:15.993Z,11.47
2023-02-12T10:09:23.562Z,11.49
2023-02-12T10:10:25.006Z,11.49
2023-02-12T10:11:45.334Z,11.51
2023-02-12T10:12:46.816Z,11.50
2023-02-12T10:13:48.314Z,11.49
2023-02-12T10:15:01.815Z,11.49
2023-02-12T10:16:15.351Z,11.52
2023-02-12T10:17:35.309Z,11.53
2023-02-12T10:18:47.247Z,11.54
2023-02-12T10:19:49.154Z,11.53
2023-02-12T10:21:09.424Z,11.54
2023-02-12T10:22:13.805Z,11.54
2023-02-12T10:23:25.220Z,11.57
2023-02-12T10:24:26.719Z,11.57
2023-02-12T10:25:40.517Z,11.58
2023-02-12T10:26:51.386Z,11.59
2023-02-12T10:27:54.089Z,11.61
2023-02-12T10:28:55.728Z,11.62
2023-02-12T10:29:59.138Z,11.64
2023-02-12T10:31:00.692Z,11.65
2023-02-12T10:32:04.936Z,11.68
2023-02-12T10:33:07.265Z,11.70
2023-02-12T10:34:14.372Z,11.71
2023-02-12T10:35:16.493Z,11.71
2023-02-12T10:36:17.981Z,11.72
2023-02-12T10:37:40.095Z,11.72
2023-02-12T10:38:42.664Z,11.74
2023-02-12T10:39:47.902Z,11.75
2023-02-12T10:40:50.438Z,11.76
2023-02-12T10:42:11.843Z,11.77
2023-02-12T10:43:13.381Z,11.79
2023-02-12T10:44:14.836Z,11.79
2023-02-12T10:45:17.469Z,11.81
2023-02-12T10:46:19.100Z,11.82
2023-02-12T10:47:21.590Z,11.84
2023-02-12T10:48:24.733Z,11.87
2023-02-12T10:49:26.480Z,11.88
2023-02-12T10:50:36.981Z,11.90
2023-02-12T10:51:41.245Z,11.91
2023-02-12T10:52:47.321Z,11.91
2023-02-12T10:53:49.471Z,11.93
2023-02-12T10:54:50.922Z,11.95
2023-02-12T10:56:18.856Z,11.97
2023-02-12T10:57:26.585Z,11.99
2023-02-12T10:58:28.111Z,12.00
2023-02-12T10:59:29.683Z,12.01
2023-02-12T11:00:32.161Z,12.03
2023-02-12T11:01:34.386Z,12.03
2023-02-12T11:02:36.146Z,12.04
2023-02-12T11:03:39.841Z,12.05
2023-02-12T11:04:41.338Z,12.05
2023-02-12T11:05:43.200Z,12.07
2023-02-12T11:06:57.367Z,12.10
2023-02-12T11:07:58.806Z,12.11
2023-02-12T11:09:00.417Z,12.13
2023-02-12T11:10:01.960Z,12.14
2023-02-12T11:11:04.416Z,12.15
2023-02-12T11:12:06.110Z,12.18
2023-02-12T11:13:21.424Z,12.19
2023-02-12T11:14:22.995Z,12.21
2023-02-12T11:15:24.979Z,12.21
2023-02-12T11:16:27.470Z,12.23
2023-02-12T11:17:29.828Z,12.25
2023-02-12T11:18:34.831Z,12.26
2023-02-12T11:19:36.394Z,12.27
2023-02-12T11:20:39.144Z,12.29
2023-02-12T11:21:40.645Z,12.30
2023-02-12T11:23:01.316Z,12.32
2023-02-12T11:24:21.056Z,12.35
2023-02-12T11:25:23.032Z,12.36
2023-02-12T11:26:25.630Z,12.37
2023-02-12T11:27:28.777Z,12.40
2023-02-12T11:28:30.756Z,12.41
2023-02-12T11:29:33.688Z,12.42
2023-02-12T11:30:35.236Z,12.44
2023-02-12T11:31:37.495Z,12.46
2023-02-12T11:32:39.120Z,12.47
2023-02-12T11:33:40.616Z,12.48
2023-02-12T11:34:42.079Z,12.48
2023-02-12T11:36:06.769Z,12.40
2023-02-12T11:37:18.498Z,12.51
2023-02-12T11:38:49.070Z,12.54
2023-02-12T11:39:50.560Z,12.55
2023-02-12T11:40:53.854Z,12.55
2023-02-12T11:41:56.434Z,12.56
2023-02-12T11:42:58.502Z,12.58
2023-02-12T11:44:00.182Z,12.58
2023-02-12T11:45:01.690Z,12.59
2023-02-12T11:46:03.345Z,12.63
2023-02-12T11:47:08.944Z,12.64
2023-02-12T11:48:20.481Z,12.64
2023-02-12T11:49:23.680Z,12.66
2023-02-12T11:50:26.550Z,12.67
2023-02-12T11:51:29.447Z,12.69
2023-02-12T11:52:34.115Z,12.70
2023-02-12T11:53:37.011Z,12.72
2023-02-12T11:54:42.073Z,12.72
2023-02-12T11:55:43.594Z,12.75
2023-02-12T11:56:45.605Z,12.76
2023-02-12T11:57:48.055Z,12.77
2023-02-12T11:58:50.024Z,12.79
2023-02-12T11:59:51.568Z,12.80
2023-02-12T12:00:54.639Z,12.80
2023-02-12T12:01:56.252Z,12.82
2023-02-12T12:03:00.620Z,12.82
2023-02-12T12:04:06.754Z,12.84
2023-02-12T12:05:09.843Z,12.86
2023-02-12T12:06:22.944Z,12.88
2023-02-12T12:07:25.753Z,12.88
2023-02-12T12:08:28.920Z,12.89
2023-02-12T12:09:35.496Z,12.91
2023-02-12T12:10:40.948Z,12.93
2023-02-12T12:11:57.386Z,12.95
2023-02-12T12:12:59.804Z,12.95
2023-02-12T12:14:07.180Z,12.96
2023-02-12T12:15:46.096Z,12.98
2023-02-12T12:17:07.268Z,12.99
2023-02-12T12:18:48.409Z,13.01
2023-02-12T12:19:56.774Z,13.02
2023-02-12T12:21:01.539Z,13.04
2023-02-12T12:22:15.606Z,13.04
2023-02-12T12:23:20.812Z,13.06
2023-02-12T12:24:24.650Z,13.07
2023-02-12T12:25:27.371Z,13.09
2023-02-12T12:26:29.549Z,13.11
2023-02-12T12:27:59.148Z,13.11
2023-02-12T12:29:06.657Z,13.14
2023-02-12T12:30:11.446Z,13.16
2023-02-12T12:31:13.009Z,13.17
2023-02-12T12:32:14.612Z,13.17
2023-02-12T12:33:17.859Z,13.19
2023-02-12T12:34:20.050Z,13.21
2023-02-12T12:35:22.999Z,13.23
2023-02-12T12:36:36.716Z,13.25
2023-02-12T12:37:44.487Z,13.28
2023-02-12T12:39:04.368Z,13.31
2023-02-12T12:40:09.336Z,13.32
2023-02-12T12:41:29.328Z,13.35
2023-02-12T12:42:49.752Z,13.36
2023-02-12T12:43:57.152Z,13.38
2023-02-12T12:44:58.616Z,13.39
2023-02-12T12:46:18.617Z,13.41
2023-02-12T12:47:25.977Z,13.44
2023-02-12T12:48:37.632Z,13.46
2023-02-12T12:49:49.384Z,13.47
2023-02-12T12:50:50.814Z,13.48
2023-02-12T12:52:10.829Z,13.51
2023-02-12T12:53:24.865Z,13.53
2023-02-12T12:54:35.244Z,13.55
2023-02-12T12:55:55.735Z,13.57
2023-02-12T12:56:58.633Z,13.59
2023-02-12T12:58:00.059Z,13.61
2023-02-12T12:59:13.793Z,13.62
2023-02-12T13:00:33.924Z,13.64
2023-02-12T13:01:35.366Z,13.66
2023-02-12T13:02:55.658Z,13.66
2023-02-12T13:03:59.885Z,13.68
2023-02-12T13:05:01.353Z,13.69
2023-02-12T13:06:14.019Z,13.70
2023-02-12T13:07:18.015Z,13.70
2023-02-12T13:08:36.020Z,13.73
2023-02-12T13:09:40.876Z,13.73
2023-02-12T13:10:46.656Z,13.74
2023-02-12T13:11:54.975Z,13.75
2023-02-12T13:13:00.537Z,13.76
2023-02-12T13:14:12.878Z,13.76
2023-02-12T13:15:19.308Z,13.76
2023-02-12T13:16:20.858Z,13.78
2023-02-12T13:17:22.370Z,13.78
2023-02-12T13:18:26.926Z,13.78
2023-02-12T13:19:28.342Z,13.78
2023-02-12T13:20:35.814Z,13.79
2023-02-12T13:21:41.817Z,13.79
2023-02-12T13:22:43.282Z,13.77
2023-02-12T13:23:52.052Z,13.77
2023-02-12T13:25:05.919Z,13.79
2023-02-12T13:26:19.185Z,13.78
2023-02-12T13:27:22.049Z,13.77
2023-02-12T13:28:41.155Z,13.78
2023-02-12T13:29:49.666Z,13.79
2023-02-12T13:30:51.880Z,13.79
2023-02-12T13:31:55.063Z,13.79
2023-02-12T13:33:02.493Z,13.79
2023-02-12T13:34:04.730Z,13.79
2023-02-12T13:35:06.451Z,13.78
2023-02-12T13:36:08.128Z,13.78
2023-02-12T13:37:13.376Z,13.77
2023-02-12T13:38:19.048Z,13.77
2023-02-12T13:39:20.534Z,13.78
2023-02-12T13:40:22.930Z,13.73
2023-02-12T13:41:24.428Z,13.73
2023-02-12T13:42:32.380Z,13.74
2023-02-12T13:43:54.093Z,13.75
2023-02-12T13:45:03.383Z,13.72
2023-02-12T13:46:19.940Z,13.75
2023-02-12T13:47:27.688Z,13.76
2023-02-12T13:48:34.708Z,13.78
2023-02-12T13:49:48.977Z,13.79